Main page
METAR-TAF:

METAR-TAF

Airports :

Girona–Costa Brava Airport

Girona, Spain

latitude: 41-54N, longitude: 002-46E, elevation: 143 m

Current weather observation

The report was made 28 minutes ago, at 14:00 UTC
Wind 7 kt from the Southeast, varying between East/Southeast and South
Temperature 19°C
Humidity 78%
Pressure 1024 hPa
Visibility 10 km or more
Few clouds at a height of 2500 ft
Scattered clouds at a height of 3800 ft

METAR: LEGE 141400Z 14007KT 110V170 9999 FEW025 SCT038 19/15 Q1024

Time: 15:28 (14:28 UTC)

Forecast

The report was made 3 hours and 28 minutes ago, at 11:00 UTC
Forecast valid from 14 at 12 UTC to 15 at 12 UTC
Wind 5 kt from the North
Visibility 10 km or more
Broken clouds at a height of 2000 ft
Temporary
from 14 at 12 UTC to 14 at 18 UTC
Wind 10 kt from the Southeast
Temporary
from 14 at 20 UTC to 15 at 10 UTC
Visibility: 4000 m
Broken clouds at a height of 1400 ft
rain

TAF: LEGE 141100Z 1412/1512 01005KT 9999 BKN020 TX21/1413Z TN14/1506Z TEMPO 1412/1418 13010KT TEMPO 1420/1510 4000 RA BKN014

Weather observations and forecasts of more than 4000 airports (METAR and TAF reports).

The available stations are represented by yellow and red dots on the map.

Hover mouse over dot to see the name of the station.

Then click to see weather observations and forecasts.

To change the map : click on the green buttons with a black cross to zoom in, on the green button with a dash to zoom out, or on the green arrows for adjacent maps.


METAR-TAF: